createdAt,value
2019-05-07T00:02:25.724Z,5.45
2019-05-07T00:04:54.172Z,5.10
2019-05-07T00:07:22.616Z,5.33
2019-05-07T00:09:52.581Z,5.30
2019-05-07T00:12:23.012Z,5.40
2019-05-07T00:14:58.931Z,5.28
2019-05-07T00:17:22.871Z,5.28
2019-05-07T00:19:52.599Z,5.75
2019-05-07T00:22:22.758Z,5.53
2019-05-07T00:24:52.115Z,5.35
2019-05-07T00:27:22.636Z,5.12
2019-05-07T00:29:52.106Z,5.15
2019-05-07T00:32:22.117Z,5.15
2019-05-07T00:34:55.448Z,5.22
2019-05-07T00:37:25.580Z,5.25
2019-05-07T00:40:07.801Z,5.65
2019-05-07T00:42:37.902Z,5.30
2019-05-07T00:45:20.229Z,5.00
2019-05-07T00:47:44.426Z,5.05
2019-05-07T00:50:17.221Z,4.65
2019-05-07T00:52:45.713Z,5.05
2019-05-07T00:55:14.165Z,5.00
2019-05-07T00:57:42.930Z,5.10
2019-05-07T01:00:13.053Z,5.08
2019-05-07T01:02:43.084Z,5.12
2019-05-07T01:05:12.287Z,4.80
2019-05-07T01:07:41.948Z,5.70
2019-05-07T01:10:12.603Z,5.35
2019-05-07T01:12:42.305Z,5.60
2019-05-07T01:15:12.835Z,4.85
2019-05-07T01:17:42.556Z,5.37
2019-05-07T01:20:12.570Z,5.12
2019-05-07T01:22:42.451Z,5.20
2019-05-07T01:25:12.870Z,5.28
2019-05-07T01:27:42.700Z,5.12
2019-05-07T01:30:12.916Z,5.03
2019-05-07T01:32:53.264Z,4.65
2019-05-07T01:35:23.615Z,5.33
2019-05-07T01:37:52.489Z,5.72
2019-05-07T01:40:22.816Z,5.30
2019-05-07T01:42:52.959Z,5.20
2019-05-07T01:45:22.082Z,5.25
2019-05-07T01:47:53.146Z,5.42
2019-05-07T01:50:22.715Z,5.37
2019-05-07T01:52:52.226Z,5.40
2019-05-07T01:55:22.572Z,5.67
2019-05-07T01:57:52.275Z,5.70
2019-05-07T02:00:22.439Z,4.80
2019-05-07T02:02:52.755Z,5.30
2019-05-07T02:05:39.095Z,4.85
2019-05-07T02:08:09.197Z,5.12
2019-05-07T02:10:42.787Z,5.47
2019-05-07T02:13:12.560Z,5.30
2019-05-07T02:15:42.756Z,5.20
2019-05-07T02:18:12.540Z,5.50
2019-05-07T02:20:42.587Z,4.90
2019-05-07T02:23:12.800Z,5.28
2019-05-07T02:25:42.013Z,5.00
2019-05-07T02:28:12.728Z,5.50
2019-05-07T02:30:44.111Z,4.45
2019-05-07T02:33:13.526Z,5.30
2019-05-07T02:35:43.940Z,4.97
2019-05-07T02:38:13.869Z,4.72
2019-05-07T02:40:44.190Z,5.20
2019-05-07T02:43:13.986Z,5.00
2019-05-07T02:45:50.113Z,5.05
2019-05-07T02:48:23.538Z,5.20
2019-05-07T02:50:53.918Z,5.20
2019-05-07T02:53:23.932Z,5.35
2019-05-07T02:55:59.480Z,5.70
2019-05-07T02:58:27.928Z,5.22
2019-05-07T03:00:56.482Z,5.22
2019-05-07T03:03:25.045Z,5.70
2019-05-07T03:05:53.912Z,5.62
2019-05-07T03:08:27.037Z,6.12
2019-05-07T03:10:53.226Z,5.95
2019-05-07T03:13:23.529Z,5.95
2019-05-07T03:15:53.949Z,6.60
2019-05-07T03:18:23.371Z,5.55
2019-05-07T03:20:54.125Z,5.87
2019-05-07T03:23:24.292Z,5.00
2019-05-07T03:25:54.846Z,5.47
2019-05-07T03:28:25.023Z,5.60
2019-05-07T03:31:05.390Z,5.78
2019-05-07T03:33:36.417Z,5.87
2019-05-07T03:36:07.298Z,5.97
2019-05-07T03:38:34.421Z,6.28
2019-05-07T03:41:03.913Z,6.28
2019-05-07T03:43:32.705Z,6.20
2019-05-07T03:46:03.725Z,6.30
2019-05-07T03:48:33.983Z,6.17
2019-05-07T03:51:03.638Z,5.75
2019-05-07T03:53:33.933Z,6.17
2019-05-07T03:56:04.163Z,6.10
2019-05-07T03:58:33.996Z,5.95
2019-05-07T04:01:04.375Z,5.75
2019-05-07T04:03:34.051Z,6.60
2019-05-07T04:06:03.965Z,5.42
2019-05-07T04:08:33.433Z,5.83
2019-05-07T04:11:03.516Z,5.80
2019-05-07T04:13:33.415Z,5.45
2019-05-07T04:16:04.090Z,5.80
2019-05-07T04:18:33.158Z,5.72
2019-05-07T04:21:03.676Z,5.62
2019-05-07T04:23:34.098Z,6.12
2019-05-07T04:26:09.606Z,6.08
2019-05-07T04:28:48.241Z,5.83
2019-05-07T04:31:16.713Z,5.85
2019-05-07T04:33:45.216Z,6.25
2019-05-07T04:36:24.028Z,5.55
2019-05-07T04:38:53.276Z,6.62
2019-05-07T04:41:23.443Z,6.15
2019-05-07T04:43:54.043Z,5.83
2019-05-07T04:46:23.602Z,5.40
2019-05-07T04:48:53.005Z,5.67
2019-05-07T04:51:23.481Z,5.83
2019-05-07T04:53:54.222Z,5.62
2019-05-07T04:56:23.804Z,5.15
2019-05-07T04:58:53.225Z,4.70
2019-05-07T05:01:23.738Z,4.50
2019-05-07T05:03:54.099Z,4.60
2019-05-07T05:06:24.096Z,4.62
2019-05-07T05:08:56.018Z,5.97
2019-05-07T05:11:23.845Z,4.83
2019-05-07T05:13:53.358Z,4.20
2019-05-07T05:16:26.229Z,4.50
2019-05-07T05:18:56.488Z,4.50
2019-05-07T05:21:26.787Z,4.65
2019-05-07T05:23:56.885Z,4.17
2019-05-07T05:26:25.332Z,4.67
2019-05-07T05:28:53.821Z,4.45
2019-05-07T05:31:22.430Z,4.25
2019-05-07T05:33:52.649Z,4.45
2019-05-07T05:36:22.211Z,4.10
2019-05-07T05:38:52.867Z,4.10
2019-05-07T05:41:22.628Z,4.28
2019-05-07T05:43:52.979Z,4.08
2019-05-07T05:46:23.325Z,4.70
2019-05-07T05:48:52.063Z,4.28
2019-05-07T05:51:38.683Z,3.83
2019-05-07T05:54:24.016Z,3.77
2019-05-07T05:57:02.943Z,4.05
2019-05-07T05:59:47.874Z,4.45
2019-05-07T06:02:09.098Z,4.22
2019-05-07T06:04:39.189Z,4.55
2019-05-07T06:07:17.986Z,3.80
2019-05-07T06:09:53.929Z,4.25
2019-05-07T06:12:38.850Z,3.77
2019-05-07T06:15:09.194Z,3.98
2019-05-07T06:17:42.620Z,4.33
2019-05-07T06:20:32.075Z,4.53
2019-05-07T06:23:22.320Z,4.42
2019-05-07T06:25:52.334Z,4.60
2019-05-07T06:28:22.357Z,5.37
2019-05-07T06:30:52.716Z,5.55
2019-05-07T06:33:22.996Z,6.12
2019-05-07T06:35:52.086Z,6.28
2019-05-07T06:38:22.147Z,6.30
2019-05-07T06:40:52.628Z,7.03
2019-05-07T06:43:37.917Z,7.08
2019-05-07T06:46:12.565Z,6.80
2019-05-07T06:48:46.251Z,6.40
2019-05-07T06:51:17.659Z,6.40
2019-05-07T06:53:46.296Z,6.87
2019-05-07T06:56:14.753Z,6.30
2019-05-07T06:58:47.579Z,7.58
2019-05-07T07:01:35.045Z,7.15
2019-05-07T07:04:05.192Z,7.20
2019-05-07T07:06:35.328Z,7.60
2019-05-07T07:09:19.162Z,7.65
2019-05-07T07:11:49.444Z,7.75
2019-05-07T07:14:18.285Z,6.95
2019-05-07T07:16:46.730Z,6.97
2019-05-07T07:19:18.135Z,7.67
2019-05-07T07:21:46.622Z,6.92
2019-05-07T07:24:15.090Z,7.97
2019-05-07T07:26:43.527Z,7.25
2019-05-07T07:29:13.632Z,8.35
2019-05-07T07:31:46.555Z,7.78
2019-05-07T07:34:15.026Z,7.70
2019-05-07T07:36:45.133Z,8.55
2019-05-07T07:39:13.704Z,7.97
2019-05-07T07:41:49.587Z,7.40
2019-05-07T07:44:18.075Z,7.08
2019-05-07T07:46:46.593Z,6.85
2019-05-07T07:49:15.370Z,6.95
2019-05-07T07:51:45.607Z,7.03
2019-05-07T07:54:14.149Z,5.85
2019-05-07T07:56:52.309Z,6.17
2019-05-07T07:59:32.717Z,5.90
2019-05-07T08:02:25.071Z,6.53
2019-05-07T08:04:53.582Z,6.55
2019-05-07T08:07:22.896Z,6.40
2019-05-07T08:09:52.101Z,6.20
2019-05-07T08:12:22.126Z,5.37
2019-05-07T08:14:51.894Z,6.20
2019-05-07T08:17:22.406Z,6.78
2019-05-07T08:19:52.006Z,5.95
2019-05-07T08:22:32.811Z,5.60
2019-05-07T08:25:12.370Z,5.87
2019-05-07T08:27:53.127Z,5.12
2019-05-07T08:30:23.442Z,4.67
2019-05-07T08:32:59.520Z,5.25
2019-05-07T08:35:35.473Z,5.60
2019-05-07T08:38:03.993Z,4.80
2019-05-07T08:40:32.693Z,4.80
2019-05-07T08:43:03.231Z,4.55
2019-05-07T08:45:49.196Z,5.30
2019-05-07T08:48:34.351Z,5.37
2019-05-07T08:51:02.874Z,4.95
2019-05-07T08:53:32.820Z,4.92
2019-05-07T08:56:03.341Z,5.25
2019-05-07T08:58:31.925Z,4.92
2019-05-07T09:01:02.891Z,5.42
2019-05-07T09:03:43.157Z,5.25
2019-05-07T09:06:13.562Z,5.25
2019-05-07T09:08:43.673Z,5.92
2019-05-07T09:11:13.376Z,5.45
2019-05-07T09:13:42.143Z,5.75
2019-05-07T09:16:12.948Z,5.70
2019-05-07T09:18:42.219Z,5.05
2019-05-07T09:21:12.619Z,5.03
2019-05-07T09:23:42.412Z,4.87
2019-05-07T09:26:13.085Z,5.53
2019-05-07T09:28:48.005Z,5.85
2019-05-07T09:31:27.654Z,5.10
2019-05-07T09:33:57.817Z,5.62
2019-05-07T09:36:27.996Z,5.12
2019-05-07T09:38:59.240Z,5.40
2019-05-07T09:41:26.663Z,5.08
2019-05-07T09:43:56.939Z,4.97
2019-05-07T09:46:25.834Z,5.22
2019-05-07T09:48:54.284Z,5.35
2019-05-07T09:51:24.300Z,4.67
2019-05-07T09:53:52.771Z,5.00
2019-05-07T09:56:22.894Z,5.30
2019-05-07T09:58:53.023Z,5.17
2019-05-07T10:01:23.687Z,5.35
2019-05-07T10:03:52.643Z,5.47
2019-05-07T10:06:22.870Z,5.17
2019-05-07T10:08:52.387Z,5.47
2019-05-07T10:11:28.629Z,5.20
2019-05-07T10:14:04.500Z,5.72
2019-05-07T10:16:37.159Z,5.28
2019-05-07T10:19:05.606Z,4.80
2019-05-07T10:21:35.801Z,4.85
2019-05-07T10:24:13.091Z,5.60
2019-05-07T10:26:42.842Z,5.33
2019-05-07T10:29:12.604Z,5.65
2019-05-07T10:31:42.363Z,5.53
2019-05-07T10:34:12.317Z,5.22
2019-05-07T10:36:42.202Z,5.47
2019-05-07T10:39:12.917Z,5.58
2019-05-07T10:41:42.489Z,5.30
2019-05-07T10:44:15.136Z,6.15
2019-05-07T10:49:37.495Z,6.22
2019-05-07T10:52:05.962Z,5.62
2019-05-07T10:54:37.463Z,5.65
2019-05-07T10:57:05.919Z,6.75
2019-05-07T10:59:34.377Z,5.95
2019-05-07T11:02:04.475Z,5.47
2019-05-07T11:04:42.543Z,5.87
2019-05-07T11:07:03.195Z,5.83
2019-05-07T11:09:32.789Z,6.08
2019-05-07T11:12:02.560Z,5.55
2019-05-07T11:14:32.162Z,5.72
2019-05-07T11:17:08.145Z,6.30
2019-05-07T11:19:36.605Z,5.62
2019-05-07T11:22:05.137Z,5.85
2019-05-07T11:24:33.587Z,6.17
2019-05-07T11:27:02.453Z,5.55
2019-05-07T11:29:33.034Z,6.03
2019-05-07T11:32:01.419Z,6.58
2019-05-07T11:34:32.740Z,6.33
2019-05-07T11:37:02.464Z,6.12
2019-05-07T11:39:33.111Z,6.28
2019-05-07T11:42:18.410Z,5.87
2019-05-07T11:44:46.864Z,5.62
2019-05-07T11:47:23.034Z,5.35
2019-05-07T11:50:11.967Z,6.67
2019-05-07T11:52:42.848Z,6.65
2019-05-07T11:55:12.117Z,6.80
2019-05-07T11:57:44.181Z,6.25
2019-05-07T12:00:13.247Z,5.90
2019-05-07T12:02:42.367Z,6.10
2019-05-07T12:05:12.122Z,5.90
2019-05-07T12:07:41.947Z,5.92
2019-05-07T12:10:12.170Z,5.83
2019-05-07T12:12:42.453Z,6.10
2019-05-07T12:15:12.473Z,6.55
2019-05-07T12:17:42.866Z,6.15
2019-05-07T12:20:12.975Z,6.40
2019-05-07T12:22:51.993Z,5.62
2019-05-07T12:25:21.995Z,6.17
2019-05-07T12:27:52.692Z,6.30
2019-05-07T12:30:43.206Z,7.23
2019-05-07T12:33:22.331Z,7.40
2019-05-07T12:35:52.458Z,6.58
2019-05-07T12:38:21.903Z,6.80
2019-05-07T12:40:52.432Z,6.50
2019-05-07T12:43:20.983Z,7.05
2019-05-07T12:45:49.454Z,7.40
2019-05-07T12:48:17.923Z,7.37
2019-05-07T12:50:46.384Z,8.00
2019-05-07T12:53:32.408Z,7.45
2019-05-07T12:56:05.313Z,7.50
2019-05-07T12:58:33.768Z,6.95
2019-05-07T13:01:03.848Z,7.15
2019-05-07T13:03:36.729Z,6.35
2019-05-07T13:06:05.318Z,7.53
2019-05-07T13:08:33.783Z,7.08
2019-05-07T13:11:03.062Z,7.17
2019-05-07T13:13:32.127Z,7.50
2019-05-07T13:16:02.669Z,6.90
2019-05-07T13:18:31.592Z,7.45
2019-05-07T13:21:02.211Z,6.92
2019-05-07T13:23:31.846Z,7.67
2019-05-07T13:26:02.587Z,7.10
2019-05-07T13:28:30.757Z,6.78
2019-05-07T13:30:59.219Z,6.95
2019-05-07T13:33:27.944Z,7.65
2019-05-07T13:35:56.481Z,7.37
2019-05-07T13:38:26.716Z,6.70
2019-05-07T13:41:02.617Z,6.12
2019-05-07T13:43:38.872Z,7.08
2019-05-07T13:46:12.218Z,7.58
2019-05-07T13:48:45.508Z,7.20
2019-05-07T13:51:12.929Z,7.45
2019-05-07T13:53:42.805Z,6.70
2019-05-07T13:56:12.862Z,7.17
2019-05-07T13:58:42.872Z,7.42
2019-05-07T14:01:13.165Z,6.70
2019-05-07T14:03:49.261Z,6.72
2019-05-07T14:06:18.482Z,7.60
2019-05-07T14:08:46.999Z,7.50
2019-05-07T14:11:15.537Z,7.03
2019-05-07T14:13:43.992Z,7.40
2019-05-07T14:16:13.871Z,7.83
2019-05-07T14:18:42.391Z,7.35
2019-05-07T14:21:12.975Z,7.15
2019-05-07T14:23:42.771Z,7.78
2019-05-07T14:26:11.215Z,7.50
2019-05-07T14:28:39.661Z,8.28
2019-05-07T14:31:08.125Z,7.62
2019-05-07T14:33:54.208Z,8.73
2019-05-07T14:36:31.997Z,7.78
2019-05-07T14:39:02.342Z,7.58
2019-05-07T14:41:32.513Z,7.92
2019-05-07T14:44:08.192Z,8.15
2019-05-07T14:46:47.260Z,7.67
2019-05-07T14:49:07.115Z,6.95
2019-05-07T14:51:35.571Z,7.55
2019-05-07T14:54:04.199Z,7.70
2019-05-07T14:56:32.822Z,7.10
2019-05-07T14:59:02.278Z,8.20
2019-05-07T15:01:31.252Z,7.50
2019-05-07T15:04:02.157Z,8.03
2019-05-07T15:06:32.380Z,8.40
2019-05-07T15:09:00.418Z,8.35
2019-05-07T15:11:28.939Z,8.43
2019-05-07T15:13:57.473Z,7.45
2019-05-07T15:16:25.919Z,6.95
2019-05-07T15:18:56.425Z,7.67
2019-05-07T15:21:24.951Z,8.85
2019-05-07T15:23:54.616Z,7.47
2019-05-07T15:26:23.241Z,7.25
2019-05-07T15:28:53.527Z,7.30
2019-05-07T15:31:26.569Z,8.00
2019-05-07T15:33:55.050Z,7.15
2019-05-07T15:36:23.492Z,7.80
2019-05-07T15:38:52.247Z,7.83
2019-05-07T15:41:22.689Z,7.90
2019-05-07T15:43:52.182Z,7.85
2019-05-07T15:46:22.769Z,7.90
2019-05-07T15:48:52.644Z,7.85
2019-05-07T15:51:22.584Z,8.58
2019-05-07T15:53:55.334Z,8.60
2019-05-07T15:56:23.881Z,8.05
2019-05-07T15:58:56.908Z,7.58
2019-05-07T16:01:29.929Z,8.60
2019-05-07T16:04:02.859Z,8.38
2019-05-07T16:06:32.321Z,7.70
2019-05-07T16:09:04.117Z,8.08
2019-05-07T16:11:33.384Z,7.67
2019-05-07T16:14:06.288Z,8.00
2019-05-07T16:16:36.399Z,7.55
2019-05-07T16:19:11.847Z,8.70
2019-05-07T16:21:42.377Z,7.62
2019-05-07T16:24:12.176Z,8.10
2019-05-07T16:26:41.899Z,8.35
2019-05-07T16:29:12.971Z,7.80
2019-05-07T16:31:40.837Z,7.95
2019-05-07T16:34:09.295Z,7.92
2019-05-07T16:36:37.748Z,7.90
2019-05-07T16:39:07.409Z,7.00
2019-05-07T16:41:35.956Z,8.38
2019-05-07T16:44:05.050Z,8.45
2019-05-07T16:46:33.506Z,8.53
2019-05-07T16:49:02.400Z,8.30
2019-05-07T16:51:33.012Z,7.90
2019-05-07T16:54:03.235Z,7.72
2019-05-07T16:56:33.345Z,7.97
2019-05-07T16:59:08.828Z,7.92
2019-05-07T17:01:42.386Z,7.20
2019-05-07T17:04:12.151Z,7.35
2019-05-07T17:06:42.116Z,7.10
2019-05-07T17:09:13.446Z,7.42
2019-05-07T17:11:43.650Z,7.33
2019-05-07T17:14:13.017Z,7.17
2019-05-07T17:16:41.713Z,7.28
2019-05-07T17:19:11.863Z,7.80
2019-05-07T17:21:40.226Z,8.25
2019-05-07T17:24:08.692Z,8.35
2019-05-07T17:26:37.246Z,8.25
2019-05-07T17:29:05.791Z,8.83
2019-05-07T17:31:34.299Z,8.30
2019-05-07T17:34:02.784Z,7.83
2019-05-07T17:36:33.116Z,8.33
2019-05-07T17:39:02.760Z,7.58
2019-05-07T17:41:32.317Z,7.75
2019-05-07T17:44:02.695Z,7.90
2019-05-07T17:46:32.333Z,8.08
2019-05-07T17:49:02.515Z,7.83
2019-05-07T17:51:43.101Z,8.18
2019-05-07T17:54:13.069Z,10.53
2019-05-07T17:56:43.033Z,9.10
2019-05-07T17:59:12.560Z,9.30
2019-05-07T18:01:52.953Z,10.30
2019-05-07T18:04:21.749Z,8.50
2019-05-07T18:06:52.117Z,10.60
2019-05-07T18:09:23.367Z,8.45
2019-05-07T18:11:52.240Z,8.05
2019-05-07T18:14:22.804Z,9.93
2019-05-07T18:16:58.857Z,8.70
2019-05-07T18:19:28.970Z,9.75
2019-05-07T18:21:57.477Z,9.13
2019-05-07T18:24:25.960Z,7.90
2019-05-07T18:26:54.484Z,7.80
2019-05-07T18:29:22.948Z,8.50
2019-05-07T18:31:59.061Z,8.03
2019-05-07T18:34:27.781Z,9.58
2019-05-07T18:36:56.295Z,7.92
2019-05-07T18:39:26.398Z,7.97
2019-05-07T18:41:54.940Z,8.35
2019-05-07T18:44:23.414Z,9.60
2019-05-07T18:46:52.874Z,8.20
2019-05-07T18:49:21.613Z,7.20
2019-05-07T18:51:52.017Z,8.63
2019-05-07T18:54:30.509Z,8.23
2019-05-07T18:56:53.007Z,8.40
2019-05-07T18:59:31.654Z,9.05
2019-05-07T19:01:59.629Z,8.43
2019-05-07T19:04:30.197Z,9.10
2019-05-07T19:06:59.875Z,11.45
2019-05-07T19:09:31.961Z,9.68
2019-05-07T19:12:03.525Z,9.40
2019-05-07T19:14:33.297Z,8.98
2019-05-07T19:17:03.569Z,9.03
2019-05-07T19:19:34.429Z,10.03
2019-05-07T19:22:02.923Z,10.95
2019-05-07T19:24:44.335Z,10.05
2019-05-07T19:27:02.176Z,9.40
2019-05-07T19:29:32.609Z,9.25
2019-05-07T19:32:03.050Z,8.25
2019-05-07T19:34:32.471Z,8.93
2019-05-07T19:37:03.936Z,8.60
2019-05-07T19:39:32.630Z,9.28
2019-05-07T19:42:02.589Z,8.45
2019-05-07T19:44:31.410Z,8.88
2019-05-07T19:47:04.497Z,7.92
2019-05-07T19:49:33.004Z,7.50
2019-05-07T19:52:01.843Z,8.28
2019-05-07T19:54:32.344Z,8.03
2019-05-07T19:57:02.811Z,7.62
2019-05-07T19:59:32.595Z,7.97
2019-05-07T20:02:03.118Z,8.40
2019-05-07T20:04:32.120Z,8.00
2019-05-07T20:07:02.777Z,7.28
2019-05-07T20:09:33.070Z,7.80
2019-05-07T20:12:02.669Z,8.15
2019-05-07T20:14:33.055Z,7.25
2019-05-07T20:17:01.848Z,9.98
2019-05-07T20:19:32.672Z,8.28
2019-05-07T20:22:02.126Z,8.30
2019-05-07T20:24:32.952Z,8.20
2019-05-07T20:27:03.087Z,8.60
2019-05-07T20:29:32.829Z,8.50
2019-05-07T20:32:01.363Z,8.10
2019-05-07T20:34:29.871Z,8.50
2019-05-07T20:36:58.356Z,8.33
2019-05-07T20:39:26.810Z,8.65
2019-05-07T20:41:55.360Z,7.97
2019-05-07T20:44:26.874Z,8.48
2019-05-07T20:46:55.567Z,8.90
2019-05-07T20:49:24.259Z,8.98
2019-05-07T20:51:52.800Z,9.13
2019-05-07T20:54:23.129Z,8.70
2019-05-07T20:56:53.292Z,7.67
2019-05-07T20:59:23.312Z,8.40
2019-05-07T21:01:52.635Z,10.38
2019-05-07T21:04:22.246Z,8.73
2019-05-07T21:06:52.510Z,9.50
2019-05-07T21:09:22.060Z,8.93
2019-05-07T21:11:50.905Z,8.65
2019-05-07T21:14:19.463Z,9.23
2019-05-07T21:16:47.999Z,8.05
2019-05-07T21:19:16.523Z,8.43
2019-05-07T21:21:46.517Z,8.75
2019-05-07T21:24:14.978Z,8.70
2019-05-07T21:26:43.435Z,8.13
2019-05-07T21:29:13.725Z,8.03
2019-05-07T21:31:43.150Z,9.15
2019-05-07T21:34:12.556Z,8.58
2019-05-07T21:36:43.178Z,8.73
2019-05-07T21:39:12.941Z,8.28
2019-05-07T21:41:42.656Z,8.23
2019-05-07T21:44:11.371Z,9.30
2019-05-07T21:46:39.838Z,8.13
2019-05-07T21:49:08.363Z,8.45
2019-05-07T21:51:36.918Z,8.63
2019-05-07T21:54:21.085Z,8.50
2019-05-07T21:57:13.839Z,8.90
2019-05-07T21:59:43.276Z,8.80
2019-05-07T22:02:13.604Z,9.78
2019-05-07T22:04:42.259Z,9.03
2019-05-07T22:07:12.229Z,9.03
2019-05-07T22:09:41.029Z,9.45
2019-05-07T22:12:11.954Z,9.10
2019-05-07T22:14:39.659Z,8.18
2019-05-07T22:17:08.112Z,8.50
2019-05-07T22:19:36.567Z,8.28
2019-05-07T22:22:06.635Z,7.97
2019-05-07T22:24:35.081Z,10.10
2019-05-07T22:27:04.268Z,8.60
2019-05-07T22:29:34.564Z,7.72
2019-05-07T22:32:11.855Z,8.13
2019-05-07T22:35:02.769Z,8.05
2019-05-07T22:37:32.442Z,7.87
2019-05-07T22:40:02.753Z,7.78
2019-05-07T22:42:32.711Z,7.90
2019-05-07T22:45:02.814Z,7.55
2019-05-07T22:47:32.643Z,8.45
2019-05-07T22:50:02.794Z,8.25
2019-05-07T22:52:32.682Z,8.40
2019-05-07T22:55:03.801Z,7.85
2019-05-07T22:57:33.954Z,7.90
2019-05-07T23:00:04.585Z,7.65
2019-05-07T23:02:33.008Z,8.00
2019-05-07T23:05:02.899Z,9.05
2019-05-07T23:07:36.095Z,8.80
2019-05-07T23:10:05.439Z,8.58
2019-05-07T23:12:33.958Z,8.08
2019-05-07T23:15:02.846Z,7.33
2019-05-07T23:17:32.647Z,7.78
2019-05-07T23:20:01.313Z,8.60
2019-05-07T23:22:32.246Z,7.42
2019-05-07T23:25:00.035Z,7.90
2019-05-07T23:27:28.569Z,7.78
2019-05-07T23:29:57.092Z,8.50
2019-05-07T23:32:25.569Z,8.25
2019-05-07T23:34:54.017Z,7.95
2019-05-07T23:37:22.657Z,8.05
2019-05-07T23:39:55.904Z,8.23
2019-05-07T23:42:26.039Z,8.20
2019-05-07T23:44:54.599Z,7.72
2019-05-07T23:47:24.756Z,7.60
2019-05-07T23:49:53.235Z,8.05
2019-05-07T23:52:22.533Z,7.83
2019-05-07T23:54:52.203Z,7.95
2019-05-07T23:57:23.132Z,7.70
2019-05-07T23:59:52.972Z,7.90
